Time;durP1;ratioP1;P1;durP2;ratioP2;P2;SDS_P1;SDS_P2;PMS_P1;PMS_P2;Temp;Humidity;BMP_temperature;BMP_pressure;BME280_temperature;BME280_humidity;BME280_pressure;Samples;Min_cycle;Max_cycle;Signal;HPM_P1;HPM_P2
2021/04/03 00:02:09;;;;;;;24.67;4.78;;;5.30;99.90;;;;;;5094233;28;20032;-62
2021/04/03 00:04:35;;;;;;;25.70;4.90;;;5.30;99.90;;;;;;5095610;28;20461;-62
2021/04/03 00:07:01;;;;;;;27.95;5.35;;;5.30;99.90;;;;;;5094512;28;20032;-62
2021/04/03 00:09:26;;;;;;;25.08;5.05;;;5.40;99.90;;;;;;5095520;28;20150;-61
2021/04/03 00:11:52;;;;;;;21.13;4.93;;;5.30;99.90;;;;;;5095472;28;20542;-62
2021/04/03 00:14:18;;;;;;;30.10;5.28;;;5.30;99.90;;;;;;5094251;28;20038;-62
2021/04/03 00:16:44;;;;;;;19.30;4.03;;;5.30;99.90;;;;;;5095397;28;20054;-62
2021/04/03 00:19:09;;;;;;;28.88;4.47;;;5.40;99.90;;;;;;5095103;28;20024;-61
2021/04/03 00:21:35;;;;;;;32.15;5.47;;;5.40;99.90;;;;;;5095028;28;20032;-61
2021/04/03 00:24:00;;;;;;;22.60;4.25;;;5.50;99.90;;;;;;5095269;28;20334;-62
2021/04/03 00:26:26;;;;;;;24.33;4.57;;;5.40;99.90;;;;;;5094537;28;20047;-62
2021/04/03 00:28:51;;;;;;;20.05;4.05;;;5.40;99.90;;;;;;5094626;28;20107;-62
2021/04/03 00:31:18;;;;;;;26.75;4.47;;;5.40;99.90;;;;;;5094119;28;20098;-62
2021/04/03 00:33:44;;;;;;;22.10;4.00;;;5.40;99.90;;;;;;5094798;28;20080;-61
2021/04/03 00:36:09;;;;;;;21.33;3.88;;;5.40;99.90;;;;;;5095047;28;20110;-61
2021/04/03 00:38:35;;;;;;;16.90;3.75;;;5.40;99.90;;;;;;5094983;28;20039;-62
2021/04/03 00:41:00;;;;;;;16.67;3.60;;;5.30;99.90;;;;;;5094968;28;20028;-62
2021/04/03 00:43:26;;;;;;;21.08;3.55;;;5.30;99.90;;;;;;5094892;28;20056;-62
2021/04/03 00:45:52;;;;;;;22.63;4.03;;;5.40;99.90;;;;;;5094590;28;20039;-62
2021/04/03 00:48:19;;;;;;;22.48;4.05;;;5.40;99.90;;;;;;5094484;28;20020;-62
2021/04/03 00:50:47;;;;;;;18.92;3.50;;;5.40;99.90;;;;;;5094746;28;20361;-62
2021/04/03 00:53:15;;;;;;;18.02;3.85;;;5.30;99.90;;;;;;5092709;28;20024;-62
2021/04/03 00:55:41;;;;;;;17.40;3.33;;;5.30;99.90;;;;;;5094644;28;20408;-62
2021/04/03 00:58:08;;;;;;;18.45;4.32;;;5.30;99.90;;;;;;5094605;28;20024;-62
2021/04/03 01:00:34;;;;;;;22.17;4.10;;;5.20;99.90;;;;;;5094542;28;20444;-62
2021/04/03 01:02:59;;;;;;;20.10;4.18;;;5.30;99.90;;;;;;5094517;28;20091;-62
2021/04/03 01:05:27;;;;;;;29.38;4.22;;;5.20;99.90;;;;;;5093927;28;20024;-62
2021/04/03 01:07:53;;;;;;;13.85;3.28;;;5.20;99.90;;;;;;5094383;28;20077;-62
2021/04/03 01:10:22;;;;;;;22.17;3.35;;;5.10;99.90;;;;;;5094405;28;20070;-62
2021/04/03 01:13:27;;;;;;;16.27;3.60;;;5.10;99.90;;;;;;5094101;28;20019;-62
2021/04/03 01:16:16;;;;;;;22.38;3.88;;;5.10;99.90;;;;;;5093084;28;20026;-62
2021/04/03 01:18:57;;;;;;;20.17;3.42;;;5.00;99.90;;;;;;5093752;28;20437;-62
2021/04/03 01:21:56;;;;;;;17.30;4.25;;;5.10;99.90;;;;;;5093991;28;20396;-62
2021/04/03 01:24:48;;;;;;;20.23;4.05;;;5.00;99.90;;;;;;5093994;28;20054;-62
2021/04/03 01:27:20;;;;;;;21.37;4.13;;;4.90;99.90;;;;;;5093446;28;20074;-62
2021/04/03 01:30:08;;;;;;;27.58;4.65;;;4.90;99.90;;;;;;5094198;28;20016;-62
2021/04/03 01:32:46;;;;;;;21.17;4.55;;;4.90;99.90;;;;;;5092862;28;20444;-62
2021/04/03 01:35:18;;;;;;;19.02;3.72;;;4.90;99.90;;;;;;5093902;28;20473;-61
2021/04/03 01:37:48;;;;;;;19.15;4.13;;;5.00;99.90;;;;;;5094167;28;20107;-62
2021/04/03 01:40:18;;;;;;;21.45;3.88;;;5.00;99.90;;;;;;5093591;28;20075;-62
2021/04/03 01:42:48;;;;;;;17.38;3.30;;;5.00;99.90;;;;;;5092729;28;20027;-62
2021/04/03 01:45:14;;;;;;;17.50;3.97;;;5.00;99.90;;;;;;5094075;28;20078;-62
2021/04/03 01:47:41;;;;;;;22.02;4.40;;;5.00;99.90;;;;;;5092862;28;20058;-62
2021/04/03 01:50:08;;;;;;;19.88;4.38;;;5.00;99.90;;;;;;5094032;28;20492;-62
2021/04/03 01:52:34;;;;;;;17.92;4.07;;;5.00;99.90;;;;;;5094010;28;20052;-62
2021/04/03 01:55:07;;;;;;;16.10;4.18;;;5.00;99.90;;;;;;5093947;28;20059;-61
2021/04/03 01:57:34;;;;;;;21.90;4.07;;;4.90;99.90;;;;;;5093401;28;20119;-62
2021/04/03 02:00:04;;;;;;;21.95;4.60;;;4.90;99.90;;;;;;5093939;28;20028;-61
2021/04/03 02:02:32;;;;;;;15.85;4.00;;;5.00;99.90;;;;;;5093646;28;20111;-62
2021/04/03 02:04:58;;;;;;;20.05;4.35;;;5.00;99.90;;;;;;5096343;28;20062;-62
2021/04/03 02:07:25;;;;;;;23.25;4.00;;;4.90;99.90;;;;;;5079443;28;20473;-61
2021/04/03 02:09:53;;;;;;;15.30;4.22;;;4.90;99.90;;;;;;5097594;28;20016;-61
2021/04/03 02:12:20;;;;;;;20.77;4.38;;;4.90;99.90;;;;;;5079408;28;20103;-61
2021/04/03 02:14:51;;;;;;;25.98;5.25;;;4.90;99.90;;;;;;5096312;28;20067;-61
2021/04/03 02:17:18;;;;;;;20.60;4.75;;;4.80;99.90;;;;;;5096262;28;20103;-61
2021/04/03 02:19:44;;;;;;;19.88;4.75;;;4.80;99.90;;;;;;5095884;28;20115;-61
2021/04/03 02:22:11;;;;;;;19.42;4.45;;;4.80;99.90;;;;;;5097363;28;20020;-61
2021/04/03 02:24:37;;;;;;;17.00;4.25;;;4.80;99.90;;;;;;5097549;28;20028;-62
2021/04/03 02:27:05;;;;;;;36.95;5.78;;;4.80;99.90;;;;;;5096925;28;20052;-62
2021/04/03 02:29:30;;;;;;;21.65;4.45;;;4.80;99.90;;;;;;5097454;28;20020;-62
2021/04/03 02:31:56;;;;;;;25.80;3.90;;;4.80;99.90;;;;;;5097429;28;20028;-62
2021/04/03 02:34:21;;;;;;;25.25;4.65;;;4.80;99.90;;;;;;5095942;28;20016;-61
2021/04/03 02:36:47;;;;;;;28.98;6.03;;;4.80;99.90;;;;;;5096370;28;20024;-62
2021/04/03 02:39:12;;;;;;;23.23;5.55;;;4.80;99.90;;;;;;5095569;28;20043;-62
2021/04/03 02:42:01;;;;;;;25.13;4.28;;;4.80;99.90;;;;;;5097233;28;20472;-62
2021/04/03 02:44:35;;;;;;;15.95;4.15;;;4.80;99.90;;;;;;5096616;28;20024;-62
2021/04/03 02:47:09;;;;;;;18.15;4.60;;;4.80;99.90;;;;;;5095232;28;20028;-62
2021/04/03 02:49:39;;;;;;;23.17;4.45;;;4.90;99.90;;;;;;5097083;28;20020;-62
2021/04/03 02:52:06;;;;;;;22.42;4.25;;;4.80;99.90;;;;;;5096500;28;20109;-61
2021/04/03 02:54:34;;;;;;;20.40;4.78;;;4.80;99.90;;;;;;5097038;28;20069;-62
2021/04/03 02:57:01;;;;;;;23.15;4.93;;;4.70;99.90;;;;;;5096986;28;20051;-61
2021/04/03 02:59:31;;;;;;;25.15;4.43;;;4.80;99.90;;;;;;5096350;28;20376;-62
2021/04/03 03:01:59;;;;;;;26.30;4.88;;;4.70;99.90;;;;;;5096860;28;20457;-61
2021/04/03 03:04:27;;;;;;;24.70;4.75;;;4.70;99.90;;;;;;5096224;28;20051;-62
2021/04/03 03:06:53;;;;;;;31.17;4.72;;;4.80;99.90;;;;;;5096700;28;20081;-61
2021/04/03 03:09:20;;;;;;;17.25;4.82;;;4.70;99.90;;;;;;5096690;28;20024;-62
2021/04/03 03:11:49;;;;;;;30.17;5.60;;;4.70;99.90;;;;;;5096700;28;20380;-61
2021/04/03 03:14:16;;;;;;;27.30;3.72;;;4.70;99.90;;;;;;5096649;28;20055;-62
2021/04/03 03:16:43;;;;;;;29.52;4.70;;;4.70;99.90;;;;;;5094226;28;20496;-62
2021/04/03 03:19:09;;;;;;;33.50;5.15;;;4.70;99.90;;;;;;5096566;28;20035;-62
2021/04/03 03:21:37;;;;;;;27.48;4.80;;;4.70;99.90;;;;;;5096488;28;20023;-62
2021/04/03 03:24:05;;;;;;;28.02;4.18;;;4.70;99.90;;;;;;5094745;28;20042;-62
2021/04/03 03:26:33;;;;;;;25.08;5.88;;;4.80;99.90;;;;;;5094626;28;20039;-62
2021/04/03 03:28:59;;;;;;;27.77;5.40;;;4.80;99.90;;;;;;5096249;28;20081;-62
2021/04/03 03:31:25;;;;;;;23.60;4.07;;;4.70;99.90;;;;;;5096020;28;20102;-62
2021/04/03 03:33:50;;;;;;;28.05;4.60;;;4.70;99.90;;;;;;5096316;28;20104;-61
2021/04/03 03:36:16;;;;;;;25.23;4.85;;;4.70;99.90;;;;;;5096247;28;20056;-61
2021/04/03 03:38:42;;;;;;;20.52;4.50;;;4.70;99.90;;;;;;5096221;28;20028;-62
2021/04/03 03:41:09;;;;;;;16.58;4.75;;;4.70;99.90;;;;;;5094312;28;20030;-62
2021/04/03 03:43:35;;;;;;;15.68;4.18;;;4.70;99.90;;;;;;5096087;28;20023;-62
2021/04/03 03:46:05;;;;;;;21.30;4.40;;;4.70;99.90;;;;;;5096035;28;20028;-62
2021/04/03 03:48:31;;;;;;;22.60;5.13;;;4.70;99.90;;;;;;5095895;28;20028;-62
2021/04/03 03:50:56;;;;;;;25.38;4.93;;;4.70;99.90;;;;;;5095373;28;20100;-62
2021/04/03 03:53:22;;;;;;;21.08;4.60;;;4.60;99.90;;;;;;5094068;28;20030;-62
2021/04/03 03:55:47;;;;;;;17.98;3.92;;;4.60;99.90;;;;;;5095275;28;20472;-62
2021/04/03 03:58:13;;;;;;;27.35;4.80;;;4.60;99.90;;;;;;5095560;28;20024;-61
2021/04/03 04:00:38;;;;;;;31.55;5.25;;;4.50;99.90;;;;;;5095482;28;20388;-61
2021/04/03 04:03:04;;;;;;;22.88;4.65;;;4.40;99.90;;;;;;5095428;28;20495;-62
2021/04/03 04:05:29;;;;;;;23.50;4.68;;;4.40;99.90;;;;;;5095379;28;20032;-62
2021/04/03 04:07:55;;;;;;;23.25;5.22;;;4.30;99.90;;;;;;5095500;28;20024;-61
2021/04/03 04:10:22;;;;;;;20.50;4.38;;;4.10;99.90;;;;;;5095575;28;20027;-62
2021/04/03 04:12:47;;;;;;;29.02;4.38;;;3.90;99.90;;;;;;5095499;28;20020;-62
2021/04/03 04:15:13;;;;;;;25.83;3.88;;;3.90;99.90;;;;;;5095469;28;20051;-62
2021/04/03 04:17:38;;;;;;;22.27;4.25;;;3.80;99.90;;;;;;5095413;28;20103;-61
2021/04/03 04:20:04;;;;;;;25.15;4.93;;;3.70;99.90;;;;;;5095370;28;20039;-62
2021/04/03 04:22:30;;;;;;;23.08;4.40;;;3.60;99.90;;;;;;5095344;28;20110;-61
2021/04/03 04:24:56;;;;;;;22.48;4.65;;;3.50;99.90;;;;;;5094961;28;20047;-61
2021/04/03 04:27:21;;;;;;;24.17;4.57;;;3.40;99.90;;;;;;5094223;28;20538;-61
2021/04/03 04:29:47;;;;;;;21.90;5.00;;;3.30;99.90;;;;;;5095173;28;20031;-61
2021/04/03 04:32:12;;;;;;;24.70;4.75;;;3.40;99.90;;;;;;5093339;28;20031;-61
2021/04/03 04:34:38;;;;;;;20.92;4.32;;;3.50;99.90;;;;;;5095083;28;20038;-61
2021/04/03 04:37:04;;;;;;;23.58;6.00;;;3.60;99.90;;;;;;5093228;28;20016;-61
2021/04/03 04:39:29;;;;;;;27.83;5.13;;;3.50;99.90;;;;;;5094986;28;20024;-61
2021/04/03 04:41:55;;;;;;;13.82;4.43;;;3.40;99.90;;;;;;5094398;28;20028;-61
2021/04/03 04:44:20;;;;;;;22.10;4.60;;;3.30;99.90;;;;;;5094367;28;20016;-62
2021/04/03 04:46:46;;;;;;;28.17;5.65;;;3.30;99.90;;;;;;5094803;28;20110;-61
2021/04/03 04:49:11;;;;;;;28.95;5.07;;;3.20;99.90;;;;;;5093656;28;20024;-61
2021/04/03 04:51:37;;;;;;;35.08;4.97;;;3.20;99.90;;;;;;5094482;28;20099;-62
2021/04/03 04:54:02;;;;;;;28.38;4.97;;;3.10;99.90;;;;;;5094464;28;20411;-62
2021/04/03 04:56:28;;;;;;;25.98;5.45;;;3.40;99.90;;;;;;5094727;28;20028;-61
2021/04/03 04:58:53;;;;;;;27.40;5.25;;;3.40;99.90;;;;;;5093191;28;20076;-62
2021/04/03 05:01:19;;;;;;;29.25;5.40;;;3.40;99.90;;;;;;5094311;28;20073;-61
2021/04/03 05:03:44;;;;;;;27.42;5.30;;;3.60;99.90;;;;;;5094315;28;20027;-61
2021/04/03 05:06:10;;;;;;;28.92;5.30;;;3.60;99.90;;;;;;5094532;28;20024;-61
2021/04/03 05:08:35;;;;;;;27.08;4.90;;;3.80;99.90;;;;;;5092988;28;20028;-61
2021/04/03 05:11:01;;;;;;;26.05;5.50;;;3.90;99.90;;;;;;5094192;28;20031;-61
2021/04/03 05:13:26;;;;;;;23.05;4.80;;;3.90;99.90;;;;;;5094431;28;20024;-61
2021/04/03 05:15:54;;;;;;;31.65;5.60;;;3.90;99.90;;;;;;5094416;28;20035;-62
2021/04/03 05:18:19;;;;;;;34.50;6.47;;;4.00;99.90;;;;;;5094350;28;20453;-61
2021/04/03 05:20:45;;;;;;;31.25;4.80;;;4.10;99.90;;;;;;5094354;28;20107;-61
2021/04/03 05:23:10;;;;;;;25.50;6.00;;;4.10;99.90;;;;;;5094081;28;20032;-61
2021/04/03 05:25:36;;;;;;;25.92;5.03;;;4.20;99.90;;;;;;5093815;28;20426;-62
2021/04/03 05:28:01;;;;;;;37.50;5.80;;;4.30;99.90;;;;;;5094193;28;20081;-61
2021/04/03 05:30:27;;;;;;;22.83;5.20;;;4.30;99.90;;;;;;5093032;28;20032;-62
2021/04/03 05:32:53;;;;;;;32.88;5.63;;;4.40;99.90;;;;;;5094221;28;20020;-62
2021/04/03 05:35:18;;;;;;;30.23;5.68;;;4.40;99.90;;;;;;5093897;28;20023;-61
2021/04/03 05:37:45;;;;;;;27.80;5.70;;;4.50;99.90;;;;;;5093455;28;20085;-62
2021/04/03 05:40:11;;;;;;;28.67;4.85;;;4.50;99.90;;;;;;5093866;28;20473;-62
2021/04/03 05:42:38;;;;;;;27.02;5.22;;;4.50;99.90;;;;;;5094091;28;20028;-62
2021/04/03 05:45:05;;;;;;;26.75;4.75;;;4.60;99.90;;;;;;5094091;28;20020;-61
2021/04/03 05:47:34;;;;;;;26.45;5.35;;;4.60;99.90;;;;;;5075363;28;20028;-61
2021/04/03 05:50:01;;;;;;;26.15;6.13;;;4.70;99.90;;;;;;5092244;28;20609;-61
2021/04/03 05:52:27;;;;;;;30.02;5.82;;;4.70;99.90;;;;;;5093973;28;20476;-61
2021/04/03 05:54:53;;;;;;;26.90;5.75;;;4.70;99.90;;;;;;5093728;28;20026;-61
2021/04/03 05:57:18;;;;;;;19.23;4.80;;;4.80;99.90;;;;;;5093929;28;20028;-61
2021/04/03 05:59:44;;;;;;;22.50;5.85;;;4.80;99.90;;;;;;5093931;28;20097;-61
2021/04/03 06:02:11;;;;;;;27.98;5.85;;;4.80;99.90;;;;;;5093917;28;20469;-61
2021/04/03 06:04:37;;;;;;;32.20;6.35;;;4.80;99.90;;;;;;5075242;28;20024;-61
2021/04/03 06:07:04;;;;;;;23.30;6.45;;;4.90;99.90;;;;;;5093720;28;20097;-62
2021/04/03 06:09:29;;;;;;;30.45;5.75;;;5.00;99.90;;;;;;5092546;28;20074;-61
2021/04/03 06:11:55;;;;;;;29.35;6.15;;;5.00;99.90;;;;;;5093548;28;20032;-61
2021/04/03 06:14:21;;;;;;;29.08;6.03;;;5.00;99.90;;;;;;5092402;28;20140;-61
2021/04/03 06:16:50;;;;;;;33.35;6.38;;;5.10;99.90;;;;;;5093420;28;20020;-61
2021/04/03 06:19:21;;;;;;;33.00;6.53;;;5.20;99.90;;;;;;5091812;28;20020;-61
2021/04/03 06:24:34;;;;;;;36.05;7.45;;;5.30;99.90;;;;;;5112260;27;20347;-62
2021/04/03 06:29:47;;;;;;;33.97;6.78;;;5.20;99.90;;;;;;5112275;27;20397;-62
2021/04/03 06:32:27;;;;;;;40.50;7.25;;;5.30;99.90;;;;;;5111692;28;20469;-62
2021/04/03 06:34:54;;;;;;;30.98;6.35;;;5.40;99.90;;;;;;5111611;28;20031;-62
2021/04/03 06:37:29;;;;;;;33.58;7.68;;;5.40;99.90;;;;;;5111522;28;20436;-62
2021/04/03 06:40:01;;;;;;;29.92;6.70;;;5.50;99.90;;;;;;5111794;28;20031;-62
2021/04/03 06:42:51;;;;;;;34.25;6.97;;;5.50;99.90;;;;;;5109944;28;20476;-62
2021/04/03 06:45:27;;;;;;;34.30;7.22;;;5.60;99.90;;;;;;5111607;28;20073;-62
2021/04/03 06:48:03;;;;;;;29.95;7.13;;;5.70;99.90;;;;;;5111512;28;20024;-62
2021/04/03 06:50:34;;;;;;;37.50;8.18;;;5.70;99.90;;;;;;5111524;28;20016;-62
2021/04/03 06:53:05;;;;;;;46.22;8.30;;;5.70;99.90;;;;;;5111503;28;20016;-62
2021/04/03 06:55:31;;;;;;;37.67;8.38;;;5.70;99.90;;;;;;5110937;28;20016;-62
2021/04/03 06:57:57;;;;;;;34.45;8.35;;;5.60;99.90;;;;;;5111207;28;20357;-62
2021/04/03 07:00:24;;;;;;;37.83;9.45;;;5.60;99.90;;;;;;5111148;28;20035;-62
2021/04/03 07:03:00;;;;;;;38.10;7.97;;;5.70;99.90;;;;;;5110702;28;20473;-62
2021/04/03 07:05:32;;;;;;;34.30;7.55;;;5.80;99.90;;;;;;5111257;28;20028;-62
2021/04/03 07:08:01;;;;;;;26.70;8.07;;;5.90;99.90;;;;;;5110630;28;20019;-61
2021/04/03 07:10:28;;;;;;;36.55;8.25;;;5.90;99.90;;;;;;5110865;28;20016;-62
2021/04/03 07:12:56;;;;;;;35.25;8.02;;;5.80;99.90;;;;;;5111106;28;20028;-62
2021/04/03 07:15:22;;;;;;;29.33;7.70;;;5.90;99.90;;;;;;5110852;28;20065;-62
2021/04/03 07:17:49;;;;;;;39.63;8.88;;;6.00;99.90;;;;;;5111036;28;20022;-62
2021/04/03 07:20:17;;;;;;;43.00;8.57;;;6.10;99.90;;;;;;5110984;28;20069;-62
2021/04/03 07:22:46;;;;;;;29.70;7.45;;;6.20;99.90;;;;;;5110734;28;20030;-62
2021/04/03 07:25:13;;;;;;;22.48;7.45;;;6.20;99.90;;;;;;5110950;28;20024;-62
2021/04/03 07:27:41;;;;;;;34.58;7.35;;;6.20;99.90;;;;;;5110503;28;20047;-63
2021/04/03 07:30:08;;;;;;;27.15;7.20;;;6.30;99.90;;;;;;5110833;28;20020;-62
2021/04/03 07:35:26;;;;;;;33.58;9.02;;;6.30;99.90;;;;;;5112251;27;20396;-62
2021/04/03 07:37:53;;;;;;;31.75;8.00;;;6.20;99.90;;;;;;5111891;28;20035;-62
2021/04/03 07:43:34;;;;;;;44.33;11.10;;;6.10;99.90;;;;;;5110630;27;20394;-61
2021/04/03 07:46:02;;;;;;;28.08;8.02;;;6.20;99.90;;;;;;5110091;28;20626;-62
2021/04/03 07:48:45;;;;;;;30.17;9.55;;;6.30;99.90;;;;;;5111854;28;20019;-62
2021/04/03 07:51:16;;;;;;;37.63;8.68;;;6.30;99.90;;;;;;5111811;28;20016;-62
2021/04/03 07:53:45;;;;;;;27.48;8.07;;;6.40;99.90;;;;;;5111770;28;20024;-62
2021/04/03 07:56:14;;;;;;;36.00;8.05;;;6.50;99.90;;;;;;5110186;28;20063;-62
2021/04/03 07:58:48;;;;;;;33.58;8.63;;;6.60;99.90;;;;;;5111622;28;20047;-62
2021/04/03 08:01:15;;;;;;;38.45;8.75;;;6.60;99.90;;;;;;5111530;28;20035;-62
2021/04/03 08:03:41;;;;;;;35.47;9.07;;;6.60;99.90;;;;;;5110965;28;20470;-62
2021/04/03 08:06:09;;;;;;;39.85;10.38;;;6.60;99.90;;;;;;5110295;28;20028;-62
2021/04/03 08:08:38;;;;;;;35.85;8.35;;;6.60;99.90;;;;;;5110274;28;20019;-63
2021/04/03 08:11:05;;;;;;;41.53;9.70;;;6.60;99.90;;;;;;5109892;28;20024;-62
2021/04/03 08:13:32;;;;;;;36.25;9.68;;;6.60;99.90;;;;;;5111300;28;20024;-62
2021/04/03 08:16:01;;;;;;;39.80;9.02;;;6.60;99.90;;;;;;5110931;28;20028;-62
2021/04/03 08:18:28;;;;;;;39.58;9.90;;;6.60;99.90;;;;;;5111264;28;20023;-62
2021/04/03 08:20:54;;;;;;;37.25;10.25;;;6.60;99.90;;;;;;5111179;28;20020;-63
2021/04/03 08:23:52;;;;;;;41.13;10.55;;;6.70;99.90;;;;;;5109764;28;20095;-62
2021/04/03 08:26:20;;;;;;;34.97;9.27;;;6.70;99.90;;;;;;5110618;28;20393;-62
2021/04/03 08:28:46;;;;;;;41.95;10.93;;;6.70;99.90;;;;;;5111074;28;20018;-62
2021/04/03 08:31:18;;;;;;;33.90;9.48;;;6.50;99.90;;;;;;5111116;28;20027;-62
2021/04/03 08:33:45;;;;;;;34.38;10.38;;;6.50;99.90;;;;;;5111040;28;20430;-60
2021/04/03 08:36:12;;;;;;;42.15;10.25;;;6.60;99.90;;;;;;5110960;28;20077;-62
2021/04/03 08:38:38;;;;;;;28.65;8.93;;;6.70;99.90;;;;;;5092409;28;20032;-62
2021/04/03 08:41:04;;;;;;;36.55;9.45;;;6.50;99.90;;;;;;5110264;28;20059;-62
2021/04/03 08:43:31;;;;;;;36.20;10.68;;;6.70;99.90;;;;;;5110742;28;20059;-60
2021/04/03 08:46:08;;;;;;;34.50;9.23;;;6.80;99.90;;;;;;5108898;28;20016;-61
2021/04/03 08:48:36;;;;;;;37.28;10.55;;;6.90;99.90;;;;;;5110473;28;20461;-61
2021/04/03 08:51:04;;;;;;;39.47;10.30;;;6.90;99.90;;;;;;5110139;28;20031;-61
2021/04/03 08:53:49;;;;;;;36.20;9.45;;;6.70;99.90;;;;;;5102425;28;20024;-61
2021/04/03 08:56:20;;;;;;;35.10;9.90;;;6.60;99.90;;;;;;5096588;28;20028;-61
2021/04/03 08:58:46;;;;;;;41.95;9.70;;;6.70;99.90;;;;;;5096954;28;20112;-62
2021/04/03 09:01:12;;;;;;;31.50;9.60;;;6.80;99.90;;;;;;5095359;28;20028;-61
2021/04/03 09:03:38;;;;;;;35.10;9.55;;;7.10;99.90;;;;;;5096569;28;20376;-60
2021/04/03 09:06:06;;;;;;;32.25;9.40;;;7.30;99.90;;;;;;5096842;28;20020;-61
2021/04/03 09:08:32;;;;;;;35.63;9.48;;;7.50;99.90;;;;;;5095309;28;20453;-61
2021/04/03 09:11:00;;;;;;;29.65;9.35;;;7.80;99.90;;;;;;5094887;28;20066;-61
2021/04/03 09:13:36;;;;;;;35.53;8.50;;;7.70;99.90;;;;;;5095541;28;20415;-60
2021/04/03 09:16:16;;;;;;;41.05;9.80;;;7.80;99.90;;;;;;5096299;28;20074;-60
2021/04/03 09:18:43;;;;;;;41.25;9.98;;;7.80;99.90;;;;;;5096552;28;20096;-61
2021/04/03 09:21:23;;;;;;;33.38;8.85;;;7.80;99.90;;;;;;5096344;28;20020;-61
2021/04/03 09:23:52;;;;;;;38.95;9.75;;;7.80;99.90;;;;;;5096471;28;20046;-61
2021/04/03 09:26:31;;;;;;;35.85;10.32;;;8.00;99.90;;;;;;5096371;28;20031;-61
2021/04/03 09:29:07;;;;;;;43.17;10.00;;;8.10;99.90;;;;;;5096333;28;20511;-61
2021/04/03 09:31:48;;;;;;;42.08;9.82;;;8.20;99.90;;;;;;5094803;28;20024;-61
2021/04/03 09:34:17;;;;;;;32.70;9.30;;;8.30;99.90;;;;;;5095978;28;20024;-61
2021/04/03 09:36:50;;;;;;;33.63;8.93;;;8.60;99.90;;;;;;5096222;28;20401;-61
2021/04/03 09:39:17;;;;;;;27.20;8.50;;;8.80;99.90;;;;;;5096285;28;20025;-61
2021/04/03 09:41:47;;;;;;;32.83;9.23;;;8.70;99.90;;;;;;5094315;28;20040;-61
2021/04/03 09:44:13;;;;;;;27.17;8.68;;;8.90;99.90;;;;;;5095818;28;20055;-61
2021/04/03 09:46:38;;;;;;;31.65;9.55;;;8.90;99.90;;;;;;5096035;28;20028;-61
2021/04/03 09:49:06;;;;;;;24.90;9.05;;;9.20;99.90;;;;;;5095757;28;20021;-61
2021/04/03 09:51:32;;;;;;;34.47;9.00;;;9.30;99.90;;;;;;5095921;28;20035;-61
2021/04/03 09:53:57;;;;;;;30.60;9.55;;;9.50;99.90;;;;;;5095875;28;20024;-61
2021/04/03 09:56:23;;;;;;;36.17;8.80;;;9.50;99.90;;;;;;5095833;28;20077;-61
2021/04/03 09:58:48;;;;;;;32.45;9.45;;;9.30;99.90;;;;;;5095171;28;20105;-61
2021/04/03 10:01:14;;;;;;;35.85;8.95;;;9.40;99.90;;;;;;5095692;28;20070;-61
2021/04/03 10:03:39;;;;;;;25.10;9.00;;;9.60;99.90;;;;;;5095417;28;20055;-61
2021/04/03 10:06:06;;;;;;;31.85;8.88;;;9.30;99.90;;;;;;5075974;28;20461;-61
2021/04/03 10:08:31;;;;;;;26.58;8.48;;;10.70;99.90;;;;;;5095579;28;20099;-60
2021/04/03 10:10:57;;;;;;;28.98;8.25;;;12.50;99.90;;;;;;5094349;28;20107;-61
2021/04/03 10:13:23;;;;;;;26.65;8.75;;;12.90;99.90;;;;;;5095212;28;20095;-60
2021/04/03 10:15:49;;;;;;;27.98;8.45;;;11.70;99.90;;;;;;5093717;28;20069;-62
2021/04/03 10:18:14;;;;;;;30.50;9.15;;;11.20;99.90;;;;;;5095356;28;20020;-61
2021/04/03 10:20:41;;;;;;;32.70;9.35;;;10.90;99.90;;;;;;5094834;28;20024;-61
2021/04/03 10:23:06;;;;;;;27.63;8.40;;;10.80;99.90;;;;;;5095304;28;20024;-61
2021/04/03 10:25:32;;;;;;;29.27;8.68;;;10.60;99.90;;;;;;5093811;28;20027;-61
2021/04/03 10:27:57;;;;;;;30.10;9.48;;;10.40;99.90;;;;;;5095231;28;20034;-60
2021/04/03 10:30:23;;;;;;;31.13;9.43;;;10.20;99.90;;;;;;5094870;28;20389;-60
2021/04/03 10:32:49;;;;;;;30.23;9.13;;;10.00;99.90;;;;;;5095109;28;20020;-61
2021/04/03 10:35:14;;;;;;;34.83;10.52;;;9.90;99.90;;;;;;5095105;28;20500;-62
2021/04/03 10:37:40;;;;;;;30.40;8.75;;;9.80;99.90;;;;;;5095004;28;20024;-61
2021/04/03 10:40:06;;;;;;;28.40;8.63;;;9.80;99.90;;;;;;5093167;28;20032;-61
2021/04/03 10:42:32;;;;;;;25.77;9.07;;;9.80;99.90;;;;;;5094284;28;20534;-62
2021/04/03 10:44:58;;;;;;;27.17;8.82;;;9.90;99.90;;;;;;5094808;28;20028;-62
2021/04/03 10:47:23;;;;;;;25.83;8.02;;;10.30;99.90;;;;;;5093028;28;20488;-62
2021/04/03 10:49:49;;;;;;;25.48;7.78;;;11.50;99.90;;;;;;5094462;28;20069;-61
2021/04/03 10:52:14;;;;;;;25.15;8.45;;;12.50;99.90;;;;;;5094475;28;20081;-62
2021/04/03 10:54:40;;;;;;;18.98;7.63;;;13.00;99.90;;;;;;5094723;28;20032;-62
2021/04/03 10:57:06;;;;;;;25.95;8.20;;;14.00;99.90;;;;;;5094430;28;20024;-61
2021/04/03 10:59:31;;;;;;;18.13;7.97;;;14.40;99.90;;;;;;5094390;28;20107;-61
2021/04/03 11:01:57;;;;;;;22.77;8.20;;;13.90;99.90;;;;;;5094017;28;20032;-62
2021/04/03 11:04:22;;;;;;;29.30;8.40;;;12.80;99.90;;;;;;5093092;28;20024;-62
2021/04/03 11:06:48;;;;;;;20.50;7.85;;;12.10;99.90;;;;;;5094562;28;20027;-62
2021/04/03 11:09:13;;;;;;;26.80;8.10;;;11.80;99.90;;;;;;5094262;28;20027;-62
2021/04/03 11:11:39;;;;;;;33.95;8.52;;;12.30;99.90;;;;;;5094500;28;20470;-62
2021/04/03 11:14:04;;;;;;;31.98;8.73;;;12.20;99.90;;;;;;5094204;28;20023;-62
2021/04/03 11:16:30;;;;;;;25.17;8.07;;;12.20;99.90;;;;;;5094207;28;20024;-62
2021/04/03 11:18:56;;;;;;;21.80;8.68;;;12.30;99.90;;;;;;5094170;28;20569;-62
2021/04/03 11:21:22;;;;;;;24.92;8.15;;;11.90;99.90;;;;;;5093786;28;20111;-62
2021/04/03 11:23:49;;;;;;;26.15;8.23;;;11.30;99.90;;;;;;5093998;28;20024;-62
2021/04/03 11:26:15;;;;;;;19.92;8.43;;;11.60;99.90;;;;;;5094126;28;20016;-62
2021/04/03 11:28:41;;;;;;;24.95;8.10;;;12.00;99.90;;;;;;5092014;28;20016;-61
2021/04/03 11:31:07;;;;;;;24.63;8.43;;;12.30;99.90;;;;;;5094004;28;20072;-62
2021/04/03 11:33:33;;;;;;;24.45;7.97;;;12.60;99.90;;;;;;5093988;28;20046;-61
2021/04/03 11:35:58;;;;;;;23.25;7.93;;;12.60;99.90;;;;;;5094119;28;20457;-62
2021/04/03 11:38:24;;;;;;;24.48;9.07;;;12.80;99.90;;;;;;5094119;28;20024;-61
2021/04/03 11:40:49;;;;;;;23.92;8.02;;;12.10;99.90;;;;;;5093772;28;20032;-61
2021/04/03 11:43:15;;;;;;;21.35;7.68;;;12.80;99.90;;;;;;5093840;28;20031;-62
2021/04/03 11:45:40;;;;;;;21.00;7.57;;;13.30;99.90;;;;;;5092319;28;20021;-62
2021/04/03 11:48:06;;;;;;;24.50;8.55;;;13.70;99.90;;;;;;5094015;28;20433;-62
2021/04/03 11:50:32;;;;;;;21.05;8.50;;;13.20;99.90;;;;;;5093781;28;20146;-62
2021/04/03 11:52:59;;;;;;;21.23;8.27;;;13.00;99.90;;;;;;5093953;28;20031;-62
2021/04/03 11:55:25;;;;;;;30.65;8.82;;;13.10;99.90;;;;;;5092533;28;20024;-62
2021/04/03 11:57:53;;;;;;;19.00;8.23;;;13.30;99.90;;;;;;5076280;28;20054;-61
2021/04/03 12:00:20;;;;;;;21.13;8.32;;;12.90;99.90;;;;;;5093365;28;20029;-62
2021/04/03 12:02:46;;;;;;;27.10;9.70;;;12.80;99.90;;;;;;5093281;28;20024;-61
2021/04/03 12:05:11;;;;;;;20.90;7.45;;;13.10;99.90;;;;;;5092462;28;20058;-62
2021/04/03 12:07:38;;;;;;;23.13;7.57;;;13.10;99.90;;;;;;5093530;28;20128;-62
2021/04/03 12:10:05;;;;;;;22.98;7.75;;;12.70;99.90;;;;;;5092567;28;20062;-61
2021/04/03 12:12:31;;;;;;;24.65;8.82;;;13.10;99.90;;;;;;5093841;28;20078;-62
2021/04/03 12:14:57;;;;;;;19.77;7.03;;;13.30;99.90;;;;;;5093266;28;20028;-61
2021/04/03 12:17:22;;;;;;;24.17;7.85;;;13.40;99.90;;;;;;5093754;28;20094;-61
2021/04/03 12:19:48;;;;;;;22.65;8.18;;;13.50;99.90;;;;;;5093489;28;20035;-62
2021/04/03 12:22:13;;;;;;;23.98;7.25;;;13.60;99.90;;;;;;5093089;28;20542;-62
2021/04/03 12:24:39;;;;;;;23.27;8.02;;;13.10;99.90;;;;;;5093380;28;20023;-63
2021/04/03 12:27:05;;;;;;;22.92;7.95;;;13.10;99.90;;;;;;5093728;28;20039;-61
2021/04/03 12:29:30;;;;;;;21.70;7.07;;;13.40;99.90;;;;;;5095580;28;20081;-61
2021/04/03 12:31:56;;;;;;;21.67;7.30;;;13.40;99.90;;;;;;5097526;28;20063;-61
2021/04/03 12:34:22;;;;;;;22.02;7.05;;;13.60;99.90;;;;;;5096868;28;20031;-61
2021/04/03 12:36:47;;;;;;;21.70;6.57;;;13.60;99.90;;;;;;5097358;28;20031;-62
2021/04/03 12:39:13;;;;;;;15.95;6.07;;;13.40;99.90;;;;;;5096123;28;20051;-62
2021/04/03 12:41:38;;;;;;;20.80;7.35;;;13.30;99.90;;;;;;5095627;28;20089;-62
2021/04/03 12:44:04;;;;;;;19.55;7.03;;;13.20;99.90;;;;;;5096854;28;20070;-61
2021/04/03 12:46:30;;;;;;;16.25;5.63;;;13.30;99.90;;;;;;5095619;28;20110;-62
2021/04/03 12:48:55;;;;;;;26.35;6.57;;;13.40;99.90;;;;;;5096594;28;20024;-62
2021/04/03 12:51:21;;;;;;;18.92;6.78;;;12.90;99.90;;;;;;5096557;28;20085;-62
2021/04/03 12:53:46;;;;;;;24.08;7.00;;;12.50;99.90;;;;;;5095368;28;20051;-61
2021/04/03 12:56:12;;;;;;;20.60;6.25;;;12.60;99.90;;;;;;5095278;28;20469;-62
2021/04/03 12:58:38;;;;;;;25.08;6.57;;;13.00;99.90;;;;;;5095916;28;20485;-62